Time;durP1;ratioP1;P1;durP2;ratioP2;P2;SDS_P1;SDS_P2;PMS_P1;PMS_P2;Temp;Humidity;BMP_temperature;BMP_pressure;BME280_temperature;BME280_humidity;BME280_pressure;Samples;Min_cycle;Max_cycle;Signal;HPM_P1;HPM_P2
2021/01/10 00:00:13;;;;;;;41.93;19.37;;;2.10;99.90;;;;;;5111053;28;20194;-80
2021/01/10 00:02:40;;;;;;;37.80;19.33;;;2.30;99.90;;;;;;5112051;28;20208;-81
2021/01/10 00:05:08;;;;;;;36.90;19.17;;;2.30;99.90;;;;;;5113786;28;20198;-81
2021/01/10 00:07:34;;;;;;;38.70;19.40;;;2.30;99.90;;;;;;5112929;28;20696;-81
2021/01/10 00:10:00;;;;;;;37.63;16.33;;;2.40;99.90;;;;;;5109444;28;20302;-80
2021/01/10 00:12:28;;;;;;;29.90;15.77;;;2.40;99.90;;;;;;5113271;28;20274;-81
2021/01/10 00:14:55;;;;;;;33.73;17.57;;;2.30;99.90;;;;;;5113591;28;20222;-81
2021/01/10 00:17:22;;;;;;;37.23;19.13;;;2.30;99.90;;;;;;5110833;28;20219;-81
2021/01/10 00:19:49;;;;;;;37.93;17.83;;;2.30;99.90;;;;;;5113588;28;20313;-81
2021/01/10 00:22:17;;;;;;;30.93;17.87;;;2.30;99.90;;;;;;5113393;28;20278;-81
2021/01/10 00:24:44;;;;;;;35.27;17.83;;;2.30;99.90;;;;;;5110837;28;20198;-81
2021/01/10 00:27:12;;;;;;;33.73;17.13;;;2.40;99.90;;;;;;5113272;28;20302;-81
2021/01/10 00:29:41;;;;;;;32.63;17.70;;;2.50;99.90;;;;;;5113098;28;20278;-80
2021/01/10 00:32:08;;;;;;;40.83;18.63;;;2.60;99.90;;;;;;5112848;28;20730;-81
2021/01/10 00:34:35;;;;;;;30.73;16.43;;;2.60;99.90;;;;;;5112989;28;20550;-81
2021/01/10 00:37:01;;;;;;;31.97;17.53;;;2.60;99.90;;;;;;5112854;28;20558;-81
2021/01/10 00:39:27;;;;;;;34.40;18.07;;;2.60;99.90;;;;;;5113125;28;20361;-80
2021/01/10 00:41:54;;;;;;;32.90;17.83;;;2.60;99.90;;;;;;5112848;28;20207;-81
2021/01/10 00:44:20;;;;;;;28.17;15.90;;;2.70;99.90;;;;;;5112820;28;20204;-81
2021/01/10 00:46:46;;;;;;;31.37;17.20;;;2.70;99.90;;;;;;5112838;28;20717;-80
2021/01/10 00:49:14;;;;;;;31.50;16.10;;;2.80;99.90;;;;;;5112946;28;20282;-81
2021/01/10 00:51:40;;;;;;;29.67;15.80;;;2.80;99.90;;;;;;5112912;28;20622;-81
2021/01/10 00:54:06;;;;;;;32.70;16.33;;;2.80;99.90;;;;;;5113149;28;20194;-81
2021/01/10 00:56:33;;;;;;;30.30;15.03;;;2.70;99.90;;;;;;5113733;28;20559;-80
2021/01/10 00:58:59;;;;;;;28.37;15.63;;;2.60;99.90;;;;;;5113414;28;20289;-81
2021/01/10 01:01:25;;;;;;;32.50;16.10;;;2.60;99.90;;;;;;5113499;28;20259;-81
2021/01/10 01:03:52;;;;;;;28.17;15.57;;;2.60;99.90;;;;;;5113641;28;20196;-81
2021/01/10 01:06:19;;;;;;;29.93;15.67;;;2.50;99.90;;;;;;5113069;28;20214;-80
2021/01/10 01:08:45;;;;;;;27.93;15.63;;;2.30;99.90;;;;;;5112749;28;20209;-80
2021/01/10 01:11:12;;;;;;;26.97;15.10;;;2.40;99.90;;;;;;5111385;28;20746;-81
2021/01/10 01:13:38;;;;;;;31.43;16.13;;;2.40;99.90;;;;;;5111350;28;20205;-80
2021/01/10 01:16:07;;;;;;;29.83;15.33;;;2.50;99.90;;;;;;5111600;28;20232;-81
2021/01/10 01:18:34;;;;;;;31.87;15.27;;;2.50;99.90;;;;;;5111476;28;20213;-80
2021/01/10 01:21:00;;;;;;;27.13;15.97;;;2.50;99.90;;;;;;5111309;28;20765;-80
2021/01/10 01:23:27;;;;;;;27.93;15.20;;;2.40;99.90;;;;;;5111129;28;20263;-80
2021/01/10 01:25:54;;;;;;;27.40;15.17;;;2.40;99.90;;;;;;5113066;28;20553;-81
2021/01/10 01:28:20;;;;;;;31.07;16.53;;;2.40;99.90;;;;;;5112993;28;20281;-80
2021/01/10 01:30:47;;;;;;;31.00;15.93;;;2.30;99.90;;;;;;5113371;28;20203;-81
2021/01/10 01:33:13;;;;;;;28.47;15.70;;;2.30;99.90;;;;;;5113232;28;20289;-81
2021/01/10 01:35:40;;;;;;;28.80;15.00;;;2.30;99.90;;;;;;5113195;28;20689;-81
2021/01/10 01:38:06;;;;;;;31.57;14.80;;;2.20;99.90;;;;;;5113035;28;20197;-81
2021/01/10 01:40:33;;;;;;;29.57;15.03;;;2.10;99.90;;;;;;5113315;28;20217;-81
2021/01/10 01:43:00;;;;;;;29.83;14.67;;;2.10;99.90;;;;;;5114506;28;20289;-81
2021/01/10 01:45:26;;;;;;;31.67;16.37;;;2.00;99.90;;;;;;5117030;28;20285;-81
2021/01/10 01:47:54;;;;;;;29.67;15.50;;;1.90;99.90;;;;;;5116809;28;20267;-80
2021/01/10 01:50:21;;;;;;;35.60;15.27;;;1.80;99.90;;;;;;5116891;28;20194;-81
2021/01/10 01:52:47;;;;;;;35.27;16.67;;;1.80;99.90;;;;;;5116708;28;20201;-81
2021/01/10 01:55:13;;;;;;;31.73;16.53;;;1.90;99.90;;;;;;5116782;28;20298;-81
2021/01/10 01:57:41;;;;;;;30.30;16.03;;;1.80;99.90;;;;;;5116797;28;20194;-81
2021/01/10 02:00:09;;;;;;;34.07;16.50;;;1.90;99.90;;;;;;5116633;28;20279;-80
2021/01/10 02:02:35;;;;;;;33.77;17.47;;;1.90;99.90;;;;;;5116579;28;20202;-80
2021/01/10 02:05:07;;;;;;;33.50;17.93;;;2.00;99.90;;;;;;5116426;28;20199;-81
2021/01/10 02:07:40;;;;;;;35.03;17.97;;;2.00;99.90;;;;;;5116447;28;20582;-81
2021/01/10 02:10:08;;;;;;;34.77;17.67;;;1.90;99.90;;;;;;5116872;28;20198;-81
2021/01/10 02:12:38;;;;;;;34.70;17.37;;;1.90;99.90;;;;;;5116599;28;20201;-81
2021/01/10 02:15:10;;;;;;;40.07;18.10;;;1.80;99.90;;;;;;5116386;28;20201;-81
2021/01/10 02:17:36;;;;;;;31.40;16.13;;;1.80;99.90;;;;;;5116218;28;20230;-80
2021/01/10 02:20:07;;;;;;;34.90;15.77;;;1.80;99.90;;;;;;5116229;28;20191;-81
2021/01/10 02:22:42;;;;;;;31.53;16.13;;;1.60;99.90;;;;;;5116187;28;20236;-80
2021/01/10 02:25:12;;;;;;;30.03;16.63;;;1.60;99.90;;;;;;5116188;28;20198;-80
2021/01/10 02:27:39;;;;;;;32.87;15.93;;;1.80;99.90;;;;;;5115979;28;20227;-80
2021/01/10 02:30:08;;;;;;;30.03;15.57;;;1.80;99.90;;;;;;5115949;28;20322;-80
2021/01/10 02:32:36;;;;;;;28.23;14.10;;;1.80;99.90;;;;;;5115979;28;20547;-80
2021/01/10 02:35:05;;;;;;;30.40;15.13;;;1.90;99.90;;;;;;5116143;28;20340;-81
2021/01/10 02:37:45;;;;;;;29.00;14.97;;;2.00;99.90;;;;;;5115981;28;20195;-81
2021/01/10 02:40:17;;;;;;;28.23;14.20;;;2.00;99.90;;;;;;5116032;28;20273;-80
2021/01/10 02:42:52;;;;;;;29.03;15.13;;;2.00;99.90;;;;;;5115658;28;20265;-80
2021/01/10 02:45:21;;;;;;;34.53;16.67;;;2.00;99.90;;;;;;5115952;28;20262;-81
2021/01/10 02:47:48;;;;;;;30.50;15.33;;;2.10;99.90;;;;;;5115515;28;20694;-80
2021/01/10 02:50:17;;;;;;;28.63;14.23;;;2.10;99.90;;;;;;5115663;28;20285;-80
2021/01/10 02:52:45;;;;;;;32.07;15.87;;;2.10;99.90;;;;;;5115562;28;20203;-81
2021/01/10 02:55:13;;;;;;;32.07;16.53;;;2.20;99.90;;;;;;5115150;28;20282;-81
2021/01/10 02:57:40;;;;;;;28.60;15.43;;;2.10;99.90;;;;;;5115449;28;20597;-81
2021/01/10 03:00:09;;;;;;;32.50;15.83;;;2.20;99.90;;;;;;5115634;28;20263;-81
2021/01/10 03:02:36;;;;;;;32.33;16.53;;;2.10;99.90;;;;;;5115429;28;20626;-81
2021/01/10 03:05:04;;;;;;;31.57;16.50;;;2.10;99.90;;;;;;5115526;28;20194;-81
2021/01/10 03:07:32;;;;;;;31.47;16.83;;;2.30;99.90;;;;;;5115461;28;20223;-81
2021/01/10 03:09:58;;;;;;;33.27;16.83;;;2.40;99.90;;;;;;5115155;28;20285;-81
2021/01/10 03:12:26;;;;;;;31.50;16.33;;;2.30;99.90;;;;;;5115202;28;20673;-81
2021/01/10 03:14:54;;;;;;;31.90;16.40;;;2.40;99.90;;;;;;5115293;28;20289;-81
2021/01/10 03:17:31;;;;;;;36.37;16.77;;;2.40;99.90;;;;;;5115235;28;20601;-81
2021/01/10 03:19:57;;;;;;;29.47;15.80;;;2.40;99.90;;;;;;5115154;28;20201;-81
2021/01/10 03:22:24;;;;;;;32.73;16.20;;;2.40;99.90;;;;;;5115009;28;20309;-81
2021/01/10 03:24:50;;;;;;;29.23;15.20;;;2.30;99.90;;;;;;5115300;28;20199;-82
2021/01/10 03:27:17;;;;;;;27.73;14.53;;;2.30;99.90;;;;;;5114852;28;20702;-81
2021/01/10 03:29:44;;;;;;;29.67;14.73;;;2.40;99.90;;;;;;5115094;28;20289;-82
2021/01/10 03:32:10;;;;;;;29.77;13.70;;;2.40;99.90;;;;;;5114929;28;20226;-81
2021/01/10 03:34:36;;;;;;;27.23;14.83;;;2.40;99.90;;;;;;5114846;28;20241;-82
2021/01/10 03:37:04;;;;;;;30.03;14.73;;;2.30;99.90;;;;;;5114839;28;20234;-81
2021/01/10 03:39:30;;;;;;;28.40;15.27;;;2.30;99.90;;;;;;5114890;28;20285;-81
2021/01/10 03:41:57;;;;;;;30.77;16.13;;;2.40;99.90;;;;;;5114757;28;20231;-81
2021/01/10 03:44:24;;;;;;;37.77;16.30;;;2.40;99.90;;;;;;5114482;28;20242;-81
2021/01/10 03:46:52;;;;;;;30.13;15.57;;;2.40;99.90;;;;;;5114589;28;20221;-81
2021/01/10 03:49:18;;;;;;;34.23;16.27;;;2.30;99.90;;;;;;5114447;28;20559;-81
2021/01/10 03:51:44;;;;;;;28.73;15.40;;;2.30;99.90;;;;;;5114498;28;20194;-81
2021/01/10 03:54:11;;;;;;;30.37;15.90;;;2.20;99.90;;;;;;5114363;28;20195;-81
2021/01/10 03:56:37;;;;;;;25.93;15.13;;;2.30;99.90;;;;;;5114251;28;20198;-81
2021/01/10 03:59:04;;;;;;;27.10;15.37;;;2.30;99.90;;;;;;5114489;28;20202;-81
2021/01/10 04:01:30;;;;;;;35.83;17.07;;;2.20;99.90;;;;;;5114330;28;20202;-81
2021/01/10 04:03:58;;;;;;;31.17;15.60;;;2.20;99.90;;;;;;5114097;28;20695;-81
2021/01/10 04:06:24;;;;;;;28.17;15.53;;;2.20;99.90;;;;;;5113293;28;20782;-81
2021/01/10 04:08:50;;;;;;;25.03;14.77;;;2.10;99.90;;;;;;5114482;28;20286;-81
2021/01/10 04:11:17;;;;;;;27.60;15.03;;;2.10;99.90;;;;;;5113963;28;20207;-82
2021/01/10 04:13:43;;;;;;;27.93;14.87;;;2.10;99.90;;;;;;5114212;28;20206;-81
2021/01/10 04:16:12;;;;;;;28.73;14.93;;;2.10;99.90;;;;;;5114116;28;20194;-81
2021/01/10 04:18:38;;;;;;;31.20;15.33;;;2.10;99.90;;;;;;5114199;28;20619;-81
2021/01/10 04:21:06;;;;;;;27.90;15.37;;;2.10;99.90;;;;;;5114164;28;20198;-81
2021/01/10 04:23:32;;;;;;;26.47;14.87;;;2.10;99.90;;;;;;5114051;28;20217;-81
2021/01/10 04:25:59;;;;;;;32.53;15.63;;;2.20;99.90;;;;;;5114047;28;20198;-80
2021/01/10 04:28:25;;;;;;;33.47;15.33;;;2.20;99.90;;;;;;5113804;28;20325;-81
2021/01/10 04:30:51;;;;;;;26.83;14.43;;;2.20;99.90;;;;;;5113978;28;20291;-81
2021/01/10 04:33:18;;;;;;;28.63;15.00;;;2.20;99.90;;;;;;5113748;28;20561;-81
2021/01/10 04:35:45;;;;;;;28.50;15.00;;;2.30;99.90;;;;;;5114025;28;20205;-81
2021/01/10 04:38:12;;;;;;;24.77;14.40;;;2.20;99.90;;;;;;5113734;28;20293;-81
2021/01/10 04:40:38;;;;;;;29.27;14.77;;;2.30;99.90;;;;;;5114924;28;20194;-81
2021/01/10 04:43:04;;;;;;;25.67;13.30;;;2.40;99.90;;;;;;5113941;28;20618;-81
2021/01/10 04:45:31;;;;;;;30.47;14.63;;;2.50;99.90;;;;;;5114076;28;20212;-81
2021/01/10 04:47:59;;;;;;;27.47;14.30;;;2.50;99.90;;;;;;5113663;28;20240;-80
2021/01/10 04:50:27;;;;;;;30.27;14.53;;;2.50;99.90;;;;;;5114242;28;20240;-82
2021/01/10 04:52:55;;;;;;;27.43;13.67;;;2.50;99.90;;;;;;5113845;28;20199;-81
2021/01/10 04:55:24;;;;;;;22.07;12.53;;;2.60;99.90;;;;;;5113918;28;20191;-82
2021/01/10 04:58:04;;;;;;;26.40;13.73;;;2.60;99.90;;;;;;5113634;28;20194;-82
2021/01/10 05:00:32;;;;;;;30.90;14.30;;;2.60;99.90;;;;;;5113817;28;20196;-82
2021/01/10 05:03:05;;;;;;;25.60;13.90;;;2.70;99.90;;;;;;5113687;28;20226;-81
2021/01/10 05:05:34;;;;;;;27.77;13.70;;;2.70;99.90;;;;;;5113328;28;20247;-81
2021/01/10 05:08:01;;;;;;;22.63;12.30;;;2.70;99.90;;;;;;5113389;28;20226;-81
2021/01/10 05:10:28;;;;;;;31.60;14.73;;;2.70;99.90;;;;;;5113571;28;20195;-81
2021/01/10 05:12:55;;;;;;;27.13;14.77;;;2.80;99.90;;;;;;5113285;28;20236;-81
2021/01/10 05:15:21;;;;;;;24.77;13.97;;;2.80;99.90;;;;;;5113423;28;20570;-81
2021/01/10 05:17:55;;;;;;;24.67;14.13;;;2.80;99.90;;;;;;5116452;28;20194;-81
2021/01/10 05:20:24;;;;;;;27.33;16.55;;;2.90;99.90;;;;;;5117153;28;20430;-81
2021/01/10 05:22:50;;;;;;;26.13;15.03;;;2.70;99.90;;;;;;5117438;28;20284;-81
2021/01/10 05:25:17;;;;;;;25.80;13.70;;;2.80;99.90;;;;;;5117387;28;20294;-81
2021/01/10 05:27:51;;;;;;;25.40;13.80;;;2.80;99.90;;;;;;5117395;28;20252;-81
2021/01/10 05:30:27;;;;;;;23.40;14.07;;;2.80;99.90;;;;;;5117463;28;20537;-81
2021/01/10 05:33:00;;;;;;;27.87;14.30;;;2.80;99.90;;;;;;5117282;28;20651;-81
2021/01/10 05:35:27;;;;;;;30.30;14.20;;;2.70;99.90;;;;;;5117226;28;20194;-81
2021/01/10 05:37:59;;;;;;;25.57;13.73;;;2.70;99.90;;;;;;5116904;28;20198;-82
2021/01/10 05:40:31;;;;;;;25.50;13.80;;;2.80;99.90;;;;;;5117040;28;20201;-82
2021/01/10 05:43:07;;;;;;;25.47;13.43;;;2.80;99.90;;;;;;5117075;28;20195;-81
2021/01/10 05:45:37;;;;;;;25.73;13.67;;;2.80;99.90;;;;;;5116971;28;20562;-81
2021/01/10 05:48:14;;;;;;;26.80;13.57;;;2.70;99.90;;;;;;5116782;28;20255;-81
2021/01/10 05:50:45;;;;;;;25.30;13.30;;;2.70;99.90;;;;;;5117014;28;20290;-81
2021/01/10 05:53:16;;;;;;;27.53;14.83;;;2.80;99.90;;;;;;5116854;28;20216;-81
2021/01/10 05:55:59;;;;;;;26.37;13.83;;;2.80;99.90;;;;;;5116675;28;20233;-81
2021/01/10 05:58:28;;;;;;;29.07;13.93;;;2.80;99.90;;;;;;5117020;28;20203;-81
2021/01/10 06:00:57;;;;;;;24.37;13.57;;;2.80;99.90;;;;;;5116638;28;20268;-82
2021/01/10 06:03:26;;;;;;;26.33;14.43;;;2.60;99.90;;;;;;5116856;28;20235;-81
2021/01/10 06:05:59;;;;;;;23.90;14.20;;;2.70;99.90;;;;;;5116685;28;20242;-81
2021/01/10 06:08:30;;;;;;;25.27;13.60;;;2.70;99.90;;;;;;5116555;28;20230;-81
2021/01/10 06:11:17;;;;;;;23.83;13.20;;;2.70;99.90;;;;;;5116509;28;20320;-81
2021/01/10 06:13:56;;;;;;;27.93;14.07;;;2.70;99.90;;;;;;5116638;28;20200;-82
2021/01/10 06:16:24;;;;;;;24.77;13.10;;;2.70;99.90;;;;;;5116538;28;20280;-81
2021/01/10 06:18:54;;;;;;;23.50;13.10;;;2.70;99.90;;;;;;5116355;28;20202;-81
2021/01/10 06:21:22;;;;;;;24.80;13.07;;;2.70;99.90;;;;;;5116392;28;20203;-81
2021/01/10 06:23:52;;;;;;;26.03;14.00;;;2.60;99.90;;;;;;5116440;28;20203;-81
2021/01/10 06:26:20;;;;;;;24.40;13.30;;;2.60;99.90;;;;;;5116394;28;20194;-81
2021/01/10 06:28:56;;;;;;;28.30;14.33;;;2.60;99.90;;;;;;5115294;28;20290;-81
2021/01/10 06:31:25;;;;;;;23.83;13.00;;;2.60;99.90;;;;;;5116265;28;20227;-81
2021/01/10 06:33:56;;;;;;;27.17;14.60;;;2.50;99.90;;;;;;5116159;28;20675;-81
2021/01/10 06:36:24;;;;;;;24.27;13.43;;;2.50;99.90;;;;;;5116320;28;20198;-81
2021/01/10 06:38:52;;;;;;;26.63;13.70;;;2.40;99.90;;;;;;5115978;28;20589;-82
2021/01/10 06:41:56;;;;;;;26.20;13.70;;;2.40;99.90;;;;;;5115949;28;20199;-82
2021/01/10 06:44:24;;;;;;;26.50;13.97;;;2.30;99.90;;;;;;5115691;28;20308;-81
2021/01/10 06:46:51;;;;;;;28.20;14.43;;;2.30;99.90;;;;;;5115943;28;20283;-81
2021/01/10 06:49:18;;;;;;;31.03;15.03;;;2.30;99.90;;;;;;5115956;28;20198;-81
2021/01/10 06:51:46;;;;;;;27.70;14.53;;;2.20;99.90;;;;;;5115652;28;20698;-81
2021/01/10 06:54:13;;;;;;;28.53;14.83;;;2.30;99.90;;;;;;5115505;28;20243;-81
2021/01/10 06:56:39;;;;;;;28.80;14.63;;;2.10;99.90;;;;;;5115653;28;20207;-81
2021/01/10 06:59:06;;;;;;;32.23;15.43;;;2.10;99.90;;;;;;5115362;28;20202;-81
2021/01/10 07:02:01;;;;;;;26.57;14.50;;;2.00;99.90;;;;;;5115498;28;20746;-81
2021/01/10 07:05:01;;;;;;;29.27;14.53;;;2.00;99.90;;;;;;5097242;28;20731;-81
2021/01/10 07:07:34;;;;;;;28.97;15.03;;;2.00;99.90;;;;;;5052498;28;20307;-81
2021/01/10 07:10:01;;;;;;;27.67;15.17;;;1.90;99.90;;;;;;5104852;28;20289;-81
2021/01/10 07:12:29;;;;;;;30.13;14.67;;;1.90;99.90;;;;;;5111728;28;20201;-81
2021/01/10 07:15:37;;;;;;;27.97;14.63;;;1.70;99.90;;;;;;5114881;28;20220;-81
2021/01/10 07:18:09;;;;;;;29.57;14.47;;;1.60;99.90;;;;;;5098341;28;20682;-81
2021/01/10 07:20:39;;;;;;;26.20;14.07;;;1.60;99.90;;;;;;5094852;28;20203;-81
2021/01/10 07:23:24;;;;;;;28.73;14.03;;;1.40;99.90;;;;;;5094558;28;20675;-81
2021/01/10 07:25:51;;;;;;;27.77;14.40;;;1.30;99.90;;;;;;5084285;28;20278;-81
2021/01/10 07:28:40;;;;;;;31.63;14.37;;;1.30;99.90;;;;;;5094624;28;20217;-82
2021/01/10 07:31:09;;;;;;;30.30;15.43;;;1.30;99.90;;;;;;5091605;28;20669;-81
2021/01/10 07:33:37;;;;;;;27.83;14.87;;;1.30;99.90;;;;;;5112351;28;20202;-81
2021/01/10 07:36:03;;;;;;;27.90;14.67;;;1.20;99.90;;;;;;5100800;28;20289;-81
2021/01/10 07:38:33;;;;;;;27.80;14.93;;;1.20;99.90;;;;;;5106747;28;20198;-81
2021/01/10 07:41:24;;;;;;;33.93;16.13;;;1.20;99.90;;;;;;5108394;28;20272;-81
2021/01/10 07:43:53;;;;;;;28.63;15.00;;;1.20;99.90;;;;;;5093562;28;20222;-82
2021/01/10 07:46:59;;;;;;;32.77;15.70;;;1.20;99.90;;;;;;5102708;28;20278;-80
2021/01/10 07:49:32;;;;;;;32.67;16.30;;;1.10;99.90;;;;;;5105674;28;20715;-81
2021/01/10 07:52:00;;;;;;;31.03;16.90;;;1.20;99.90;;;;;;5095380;28;20286;-81
2021/01/10 07:54:52;;;;;;;31.03;15.70;;;1.20;99.90;;;;;;5105543;28;20681;-81
2021/01/10 07:57:33;;;;;;;33.00;15.83;;;1.20;99.90;;;;;;5106069;28;20249;-81
2021/01/10 08:00:14;;;;;;;32.87;16.73;;;1.20;99.90;;;;;;5097701;28;20199;-79
2021/01/10 08:02:55;;;;;;;38.80;17.63;;;1.20;99.90;;;;;;5107430;28;20198;-81
2021/01/10 08:05:24;;;;;;;30.73;15.70;;;1.10;99.90;;;;;;5103955;28;20239;-80
2021/01/10 08:08:02;;;;;;;33.57;16.80;;;1.20;99.90;;;;;;5101414;28;20317;-80
2021/01/10 08:10:41;;;;;;;37.70;17.40;;;1.20;99.90;;;;;;5106841;28;20204;-81
2021/01/10 08:13:29;;;;;;;35.17;17.53;;;1.20;99.90;;;;;;5100085;28;20202;-80
2021/01/10 08:15:57;;;;;;;34.47;17.10;;;1.20;99.90;;;;;;5104588;28;20297;-80
2021/01/10 08:18:27;;;;;;;35.20;17.43;;;1.30;99.90;;;;;;5110567;28;20202;-80
2021/01/10 08:20:54;;;;;;;33.30;16.63;;;1.30;99.90;;;;;;5110213;28;20194;-80
2021/01/10 08:23:21;;;;;;;36.47;17.50;;;1.30;99.90;;;;;;5105322;28;20202;-81
2021/01/10 08:25:49;;;;;;;34.53;17.27;;;1.30;99.90;;;;;;5108377;28;20667;-80
2021/01/10 08:28:18;;;;;;;37.07;17.67;;;1.30;99.90;;;;;;5109257;28;20222;-80
2021/01/10 08:30:45;;;;;;;38.93;17.73;;;1.30;99.90;;;;;;5103325;28;20204;-81
2021/01/10 08:33:17;;;;;;;35.83;17.43;;;1.30;99.90;;;;;;5100132;28;20203;-80
2021/01/10 08:35:44;;;;;;;36.83;17.60;;;1.20;99.90;;;;;;5105095;28;20525;-80
2021/01/10 08:38:11;;;;;;;41.30;18.07;;;1.20;99.90;;;;;;5105550;28;20226;-80
2021/01/10 08:40:38;;;;;;;36.20;17.27;;;1.20;99.90;;;;;;5110242;28;20198;-80
2021/01/10 08:43:05;;;;;;;37.33;17.53;;;1.20;99.90;;;;;;5103293;28;20682;-80
2021/01/10 08:45:31;;;;;;;33.13;17.07;;;1.20;99.90;;;;;;5102883;28;20198;-82
2021/01/10 08:48:02;;;;;;;39.13;17.00;;;1.20;99.90;;;;;;5109904;28;20333;-81
2021/01/10 08:50:39;;;;;;;32.93;16.67;;;1.30;99.90;;;;;;5112018;28;20663;-81
2021/01/10 08:53:06;;;;;;;39.57;17.60;;;1.40;99.90;;;;;;5108459;28;20199;-81
2021/01/10 08:55:34;;;;;;;36.13;17.77;;;1.40;99.90;;;;;;5108673;28;20319;-81
2021/01/10 08:58:01;;;;;;;35.33;17.67;;;1.40;99.90;;;;;;5108191;28;20281;-80
2021/01/10 09:00:29;;;;;;;40.07;17.83;;;1.50;99.90;;;;;;5106509;28;20285;-81
2021/01/10 09:02:55;;;;;;;39.50;18.77;;;1.50;99.90;;;;;;5091150;28;20254;-81
2021/01/10 09:05:26;;;;;;;37.93;17.90;;;1.50;99.90;;;;;;5090542;28;20664;-80
2021/01/10 09:07:57;;;;;;;39.77;18.47;;;1.60;99.90;;;;;;5090747;28;20218;-80
2021/01/10 09:10:26;;;;;;;39.83;18.63;;;1.60;99.90;;;;;;5092800;28;20199;-80
2021/01/10 09:12:58;;;;;;;39.47;18.03;;;1.70;99.90;;;;;;5090568;28;20237;-81
2021/01/10 09:15:28;;;;;;;37.40;17.50;;;1.70;99.90;;;;;;5089867;28;20726;-80
2021/01/10 09:17:59;;;;;;;35.77;18.20;;;1.70;99.90;;;;;;5095698;28;20210;-81
2021/01/10 09:20:28;;;;;;;36.90;17.83;;;1.80;99.90;;;;;;5096852;28;20300;-80
2021/01/10 09:22:57;;;;;;;34.90;18.27;;;1.90;99.90;;;;;;5094198;28;20295;-81
2021/01/10 09:25:24;;;;;;;35.73;17.67;;;1.90;99.90;;;;;;5108081;28;20242;-81
2021/01/10 09:28:11;;;;;;;41.10;19.27;;;1.90;99.90;;;;;;5111469;28;20258;-80
2021/01/10 09:30:39;;;;;;;36.13;18.47;;;2.10;99.90;;;;;;5104801;28;20219;-81
2021/01/10 09:33:06;;;;;;;31.23;15.07;;;2.10;99.90;;;;;;5108664;28;20203;-81
2021/01/10 09:35:40;;;;;;;33.43;15.00;;;2.20;99.90;;;;;;5094294;28;20333;-80
2021/01/10 09:38:09;;;;;;;37.07;17.83;;;2.20;99.90;;;;;;5091643;28;20234;-81
2021/01/10 09:40:35;;;;;;;35.97;17.80;;;2.20;99.90;;;;;;5091455;28;20328;-81
2021/01/10 09:43:02;;;;;;;34.97;18.20;;;2.20;99.90;;;;;;5090686;28;20228;-81
2021/01/10 09:45:37;;;;;;;36.80;17.00;;;2.20;99.90;;;;;;5091595;28;20216;-81
2021/01/10 09:48:04;;;;;;;42.40;16.93;;;2.30;99.90;;;;;;5094020;28;20230;-81
2021/01/10 09:50:31;;;;;;;39.33;17.53;;;2.40;99.90;;;;;;5096437;28;20284;-81
2021/01/10 09:52:57;;;;;;;34.80;17.37;;;2.50;99.90;;;;;;5093132;28;20202;-81
2021/01/10 09:55:25;;;;;;;36.83;18.07;;;2.50;99.90;;;;;;5108130;28;20195;-81
2021/01/10 09:57:52;;;;;;;38.30;17.33;;;2.60;99.90;;;;;;5106655;28;20594;-81
2021/01/10 10:00:21;;;;;;;35.33;17.40;;;2.50;99.90;;;;;;5098710;28;20202;-81
2021/01/10 10:02:48;;;;;;;39.70;17.90;;;2.60;99.90;;;;;;5110359;28;20195;-81
2021/01/10 10:05:17;;;;;;;37.17;18.23;;;2.70;99.90;;;;;;5113483;28;20200;-80
2021/01/10 10:07:45;;;;;;;42.43;18.53;;;2.70;99.90;;;;;;5113276;28;20314;-80
2021/01/10 10:10:23;;;;;;;37.30;18.77;;;2.90;99.90;;;;;;5109912;28;20195;-81
2021/01/10 10:12:57;;;;;;;40.73;18.47;;;3.00;99.90;;;;;;5112009;28;20206;-80
2021/01/10 10:15:36;;;;;;;40.27;18.97;;;3.00;99.90;;;;;;5107468;28;20206;-80
2021/01/10 10:18:04;;;;;;;35.50;19.37;;;3.20;99.90;;;;;;5115765;28;20721;-81
2021/01/10 10:20:31;;;;;;;36.83;18.13;;;3.20;99.90;;;;;;5114103;28;20641;-80
2021/01/10 10:23:08;;;;;;;42.53;19.27;;;3.20;99.90;;;;;;5110187;28;20225;-80
2021/01/10 10:25:35;;;;;;;38.33;19.30;;;3.20;99.90;;;;;;5111447;28;20195;-80
2021/01/10 10:28:04;;;;;;;37.10;19.00;;;3.40;99.90;;;;;;5110131;28;20223;-79
2021/01/10 10:30:32;;;;;;;32.97;18.07;;;3.40;99.90;;;;;;5114238;28;20194;-81
2021/01/10 10:33:00;;;;;;;34.80;17.77;;;3.50;99.90;;;;;;5130146;28;20194;-81
2021/01/10 10:35:28;;;;;;;32.37;17.10;;;3.60;99.90;;;;;;5125288;28;20202;-80
2021/01/10 10:37:55;;;;;;;29.60;16.13;;;3.60;99.90;;;;;;5115462;28;20743;-80
2021/01/10 10:40:21;;;;;;;30.23;16.60;;;3.70;99.90;;;;;;5109366;28;20209;-79
2021/01/10 10:42:48;;;;;;;32.10;15.83;;;3.80;99.90;;;;;;5103311;28;20205;-80
2021/01/10 10:45:16;;;;;;;31.73;16.40;;;3.90;99.90;;;;;;5116067;28;20191;-79
2021/01/10 10:47:42;;;;;;;29.50;15.57;;;3.90;99.90;;;;;;5117966;28;20243;-79
2021/01/10 10:50:10;;;;;;;26.07;15.00;;;3.80;99.90;;;;;;5114288;28;20295;-81
2021/01/10 10:52:38;;;;;;;31.27;16.27;;;3.90;99.90;;;;;;5112678;28;20205;-79
2021/01/10 10:55:06;;;;;;;26.50;15.00;;;3.90;99.90;;;;;;5110349;28;20282;-80
2021/01/10 10:57:32;;;;;;;25.43;14.60;;;4.00;99.90;;;;;;5112042;28;20211;-80
2021/01/10 10:59:58;;;;;;;27.80;15.13;;;4.00;99.90;;;;;;5112019;28;20204;-79
2021/01/10 11:02:25;;;;;;;26.80;15.13;;;3.90;99.90;;;;;;5113089;28;20198;-80
2021/01/10 11:04:51;;;;;;;27.60;14.10;;;3.80;99.90;;;;;;5111453;28;20198;-79
2021/01/10 11:07:18;;;;;;;26.43;13.80;;;3.80;99.90;;;;;;5108688;28;20770;-79
2021/01/10 11:09:45;;;;;;;27.00;13.87;;;4.00;99.90;;;;;;5110050;28;20320;-79
2021/01/10 11:12:13;;;;;;;23.90;13.97;;;4.00;99.90;;;;;;5109918;28;20202;-79
2021/01/10 11:14:40;;;;;;;28.30;13.60;;;4.10;99.90;;;;;;5111722;28;20206;-79
2021/01/10 11:17:07;;;;;;;25.00;13.90;;;4.10;99.90;;;;;;5108437;28;20573;-79
2021/01/10 11:19:34;;;;;;;24.90;13.97;;;4.10;99.90;;;;;;5112285;28;20200;-79
2021/01/10 11:22:03;;;;;;;28.20;14.60;;;4.10;99.90;;;;;;5110056;28;20196;-79
2021/01/10 11:24:29;;;;;;;23.53;12.83;;;4.10;99.90;;;;;;5119729;28;20199;-79
2021/01/10 11:26:57;;;;;;;25.07;14.00;;;4.10;99.90;;;;;;5112296;28;20195;-79
2021/01/10 11:29:23;;;;;;;25.67;13.00;;;4.10;99.90;;;;;;5109206;28;20290;-78
2021/01/10 11:31:50;;;;;;;28.37;12.80;;;4.10;99.90;;;;;;5109934;28;20286;-79
2021/01/10 11:34:17;;;;;;;26.97;12.77;;;4.00;99.90;;;;;;5111897;28;20199;-79
2021/01/10 11:36:45;;;;;;;20.77;11.37;;;4.10;99.90;;;;;;5111579;28;21003;-79
2021/01/10 11:39:12;;;;;;;24.50;12.80;;;4.00;99.90;;;;;;5108818;28;20193;-79
2021/01/10 11:41:41;;;;;;;26.17;12.90;;;4.10;99.90;;;;;;5111996;28;20675;-78
2021/01/10 11:44:09;;;;;;;26.07;13.03;;;4.10;99.90;;;;;;5082982;28;20693;-78
2021/01/10 11:46:35;;;;;;;23.60;12.63;;;4.20;99.90;;;;;;5092667;28;20211;-78
2021/01/10 11:49:02;;;;;;;24.87;13.57;;;4.40;99.90;;;;;;5102532;28;20214;-78
2021/01/10 11:51:28;;;;;;;25.00;13.57;;;4.40;99.90;;;;;;5106887;28;20214;-78
2021/01/10 11:53:54;;;;;;;23.97;13.00;;;4.40;99.90;;;;;;5110297;28;20244;-78
2021/01/10 11:56:21;;;;;;;23.80;13.10;;;4.40;99.90;;;;;;5107987;28;20284;-78
2021/01/10 11:58:47;;;;;;;23.40;13.13;;;4.40;99.90;;;;;;5108276;28;20298;-79
2021/01/10 12:01:14;;;;;;;27.97;12.50;;;4.40;99.90;;;;;;5096136;28;20287;-78
2021/01/10 12:03:42;;;;;;;22.90;11.53;;;4.50;99.90;;;;;;5102579;28;20343;-78
2021/01/10 12:06:09;;;;;;;21.30;11.13;;;4.60;99.90;;;;;;5101400;28;20206;-78
2021/01/10 12:08:36;;;;;;;27.27;12.17;;;4.60;99.90;;;;;;5100913;28;20275;-78
2021/01/10 12:11:02;;;;;;;23.67;11.77;;;4.60;99.90;;;;;;5099622;28;20664;-78
2021/01/10 12:13:28;;;;;;;22.93;12.40;;;4.70;99.90;;;;;;5102252;28;20200;-78
2021/01/10 12:15:56;;;;;;;24.07;12.07;;;4.80;99.90;;;;;;5101013;28;20204;-78
2021/01/10 12:18:24;;;;;;;24.97;11.03;;;4.80;99.90;;;;;;5096609;28;20272;-78
2021/01/10 12:20:50;;;;;;;19.93;10.80;;;4.80;99.90;;;;;;5096471;28;20212;-77
2021/01/10 12:23:17;;;;;;;18.57;11.17;;;4.90;99.90;;;;;;5102763;28;20198;-78
2021/01/10 12:25:44;;;;;;;21.60;11.17;;;4.80;99.90;;;;;;5100267;28;20296;-78
2021/01/10 12:28:10;;;;;;;20.57;10.60;;;4.80;99.90;;;;;;5098206;28;20228;-78
2021/01/10 12:30:37;;;;;;;21.67;10.93;;;4.70;99.90;;;;;;5098392;28;20207;-78
2021/01/10 12:33:03;;;;;;;22.97;11.50;;;4.70;99.90;;;;;;5100861;28;20539;-78
2021/01/10 12:35:30;;;;;;;21.03;13.03;;;4.60;99.90;;;;;;5105747;28;20650;-78
2021/01/10 12:37:57;;;;;;;20.93;12.30;;;4.50;99.90;;;;;;5101724;28;20277;-78
2021/01/10 12:40:23;;;;;;;31.33;12.80;;;4.50;99.90;;;;;;5104275;28;20195;-78
2021/01/10 12:42:49;;;;;;;27.00;12.13;;;4.50;99.90;;;;;;5108693;28;20218;-78
2021/01/10 12:45:17;;;;;;;20.97;11.53;;;4.40;99.90;;;;;;5106084;28;20199;-79